Time;durP1;ratioP1;P1;durP2;ratioP2;P2;SDS_P1;SDS_P2;PMS_P1;PMS_P2;Temp;Humidity;BMP_temperature;BMP_pressure;BME280_temperature;BME280_humidity;BME280_pressure;Samples;Min_cycle;Max_cycle;Signal;HPM_P1;HPM_P2
2021/12/01 00:00:43;;;;;;;0.50;0.50;;;;;;;5.46;87.08;95099.41;4995168;28;20196;-82
2021/12/01 00:03:10;;;;;;;0.57;0.57;;;;;;;5.46;88.07;95081.53;4993874;28;20203;-82
2021/12/01 00:05:36;;;;;;;0.50;0.50;;;;;;;5.41;88.39;95100.84;4993540;28;20710;-83
2021/12/01 00:08:03;;;;;;;0.50;0.50;;;;;;;5.43;89.37;95084.41;4994669;28;20204;-85
2021/12/01 00:10:34;;;;;;;0.50;0.50;;;;;;;5.45;89.67;95063.84;4994306;28;20203;-85
2021/12/01 00:13:02;;;;;;;0.40;0.40;;;;;;;5.44;90.08;95077.53;4993551;28;20290;-84
2021/12/01 00:15:28;;;;;;;0.50;0.50;;;;;;;5.45;90.31;95076.59;4994112;28;20235;-84
2021/12/01 00:17:55;;;;;;;0.50;0.50;;;;;;;5.48;90.38;95083.94;4994991;28;20199;-82
2021/12/01 00:20:22;;;;;;;0.40;0.40;;;;;;;5.43;90.79;95083.59;4994117;28;20203;-84
2021/12/01 00:22:49;;;;;;;0.50;0.50;;;;;;;5.41;91.93;95071.00;4992545;28;20196;-82
2021/12/01 00:25:19;;;;;;;0.50;0.50;;;;;;;5.41;92.68;95065.09;4994376;28;20290;-83
2021/12/01 00:27:46;;;;;;;0.50;0.50;;;;;;;5.46;93.19;95073.88;4995063;28;20207;-84
2021/12/01 00:30:14;;;;;;;0.40;0.40;;;;;;;5.44;93.08;95068.13;4994692;28;20200;-84
2021/12/01 00:32:40;;;;;;;0.43;0.43;;;;;;;5.34;94.53;95071.81;4993309;28;20246;-81
2021/12/01 00:35:08;;;;;;;0.50;0.50;;;;;;;5.36;94.91;95090.31;4993101;28;20235;-81
2021/12/01 00:37:35;;;;;;;0.50;0.50;;;;;;;5.39;94.14;95072.91;4993535;28;20203;-83
2021/12/01 00:40:02;;;;;;;0.40;0.40;;;;;;;5.39;93.89;95072.09;4994005;28;20211;-81
2021/12/01 00:42:29;;;;;;;0.47;0.47;;;;;;;5.42;94.09;95084.56;4992683;28;20195;-83
2021/12/01 00:44:58;;;;;;;0.50;0.50;;;;;;;5.43;93.84;95073.41;4993108;28;20262;-82
2021/12/01 00:47:31;;;;;;;0.50;0.50;;;;;;;5.44;93.11;95062.22;4993770;28;20210;-83
2021/12/01 00:49:58;;;;;;;0.50;0.50;;;;;;;5.51;92.96;95070.88;4993736;28;20214;-83
2021/12/01 00:52:26;;;;;;;0.50;0.50;;;;;;;5.52;91.60;95041.84;4992964;28;20210;-82
2021/12/01 00:54:53;;;;;;;0.60;0.60;;;;;;;5.61;90.89;95063.03;4992756;28;20251;-81
2021/12/01 00:57:19;;;;;;;0.50;0.50;;;;;;;5.52;90.02;95052.84;4993448;28;20199;-82
2021/12/01 00:59:46;;;;;;;0.40;0.40;;;;;;;5.59;89.23;95047.88;4994008;28;20667;-83
2021/12/01 01:02:12;;;;;;;0.40;0.40;;;;;;;5.68;88.28;95054.59;4992696;28;20211;-84
2021/12/01 01:04:40;;;;;;;0.50;0.50;;;;;;;5.73;87.29;95052.38;4992443;28;20289;-83
2021/12/01 01:07:06;;;;;;;0.50;0.50;;;;;;;5.80;86.85;95043.09;4993626;28;20219;-83
2021/12/01 01:09:33;;;;;;;0.50;0.50;;;;;;;5.80;85.81;95045.66;4993866;28;20196;-84
2021/12/01 01:17:37;;;;;;;0.50;0.50;;;;;;;5.88;84.90;95039.75;4993659;28;20209;-82
2021/12/01 01:20:07;;;;;;;0.50;0.50;;;;;;;5.87;84.33;95041.50;4993879;28;20229;-81
2021/12/01 01:22:33;;;;;;;0.50;0.50;;;;;;;5.93;84.25;95021.41;4992481;28;20199;-84
2021/12/01 01:25:00;;;;;;;0.40;0.40;;;;;;;5.90;83.89;95030.19;4993064;28;20251;-82
2021/12/01 01:27:26;;;;;;;0.40;0.40;;;;;;;5.91;83.63;95021.56;4992936;28;20203;-83
2021/12/01 01:29:53;;;;;;;0.50;0.50;;;;;;;5.92;83.54;95017.28;4994424;28;20215;-84
2021/12/01 01:32:19;;;;;;;0.40;0.40;;;;;;;5.97;83.18;95013.25;4996716;28;20659;-84
2021/12/01 01:34:46;;;;;;;0.50;0.50;;;;;;;5.95;83.16;95004.19;4997017;28;20242;-84
2021/12/01 01:37:13;;;;;;;0.50;0.50;;;;;;;6.00;82.83;95000.16;4997929;28;20202;-85
2021/12/01 01:39:40;;;;;;;0.40;0.40;;;;;;;6.00;82.62;95001.91;4998177;28;20199;-82
2021/12/01 01:42:07;;;;;;;0.40;0.40;;;;;;;5.98;82.43;94991.06;4997784;28;20208;-84
2021/12/01 01:44:33;;;;;;;0.47;0.47;;;;;;;5.99;82.67;94977.31;4997643;28;20314;-84
2021/12/01 01:47:00;;;;;;;0.57;0.57;;;;;;;6.04;82.68;94981.00;4998133;28;20196;-84
2021/12/01 01:49:40;;;;;;;0.40;0.40;;;;;;;6.04;82.64;94980.19;4998631;28;20219;-84
2021/12/01 01:52:07;;;;;;;0.40;0.40;;;;;;;5.98;82.56;94980.84;4997564;28;20627;-84
2021/12/01 01:54:35;;;;;;;0.50;0.50;;;;;;;6.02;82.61;94979.56;4997190;28;20231;-84
2021/12/01 01:57:02;;;;;;;0.50;0.50;;;;;;;6.05;82.32;94982.59;4997479;28;20234;-83
2021/12/01 01:59:28;;;;;;;0.43;0.43;;;;;;;6.05;81.90;94969.00;4997416;28;20195;-83
2021/12/01 02:01:56;;;;;;;0.50;0.50;;;;;;;6.07;82.28;94978.09;4998114;28;20548;-84
2021/12/01 02:04:23;;;;;;;0.50;0.50;;;;;;;6.06;82.40;94979.06;4996533;28;20235;-83
2021/12/01 02:06:50;;;;;;;0.40;0.40;;;;;;;6.05;82.48;94979.22;4996054;28;20590;-83
2021/12/01 02:09:20;;;;;;;0.40;0.40;;;;;;;6.04;82.29;94978.44;4997058;28;20548;-84
2021/12/01 02:11:49;;;;;;;0.50;0.50;;;;;;;6.05;82.04;94956.22;4997233;28;20204;-84
2021/12/01 02:14:16;;;;;;;0.40;0.40;;;;;;;6.11;81.97;94974.28;4997171;28;20227;-84
2021/12/01 02:16:43;;;;;;;0.43;0.43;;;;;;;6.11;81.34;94965.81;4996756;28;20231;-83
2021/12/01 02:19:10;;;;;;;0.40;0.40;;;;;;;6.19;81.31;94958.91;4996306;28;20192;-82
2021/12/01 02:21:38;;;;;;;0.40;0.40;;;;;;;6.21;81.16;94941.63;4996832;28;20203;-83
2021/12/01 02:24:07;;;;;;;0.50;0.50;;;;;;;6.17;80.83;94948.03;4996308;28;20230;-82
2021/12/01 02:26:38;;;;;;;0.43;0.43;;;;;;;6.18;81.04;94931.75;4996534;28;20246;-83
2021/12/01 02:29:07;;;;;;;0.40;0.40;;;;;;;6.21;80.74;94940.84;4997143;28;20227;-83
2021/12/01 02:31:36;;;;;;;0.50;0.50;;;;;;;6.27;80.72;94935.09;4997158;28;20203;-81
2021/12/01 02:34:03;;;;;;;0.50;0.50;;;;;;;6.24;80.60;94925.19;4997107;28;20281;-84
2021/12/01 02:36:30;;;;;;;0.40;0.40;;;;;;;6.19;80.48;94922.31;4996362;28;20361;-82
2021/12/01 02:38:57;;;;;;;0.40;0.40;;;;;;;6.22;80.53;94915.13;4997112;28;20199;-84
2021/12/01 02:41:28;;;;;;;0.40;0.40;;;;;;;6.21;80.26;94910.97;4995816;28;20200;-82
2021/12/01 02:43:55;;;;;;;0.50;0.50;;;;;;;6.23;80.23;94932.06;4996565;28;20637;-82
2021/12/01 02:46:22;;;;;;;0.50;0.50;;;;;;;6.27;80.01;94906.97;4995766;28;20233;-83
2021/12/01 02:48:49;;;;;;;0.40;0.40;;;;;;;6.16;80.03;94910.66;4997165;28;20219;-83
2021/12/01 02:51:17;;;;;;;0.50;0.50;;;;;;;6.18;80.47;94905.38;4996906;28;20210;-84
2021/12/01 02:53:43;;;;;;;0.40;0.40;;;;;;;6.16;80.08;94895.31;4999011;28;20230;-83
2021/12/01 02:56:11;;;;;;;0.47;0.47;;;;;;;6.18;80.09;94885.75;4998948;28;20227;-83
2021/12/01 02:58:40;;;;;;;0.40;0.40;;;;;;;6.17;80.29;94888.47;4999416;28;20203;-83
2021/12/01 03:01:09;;;;;;;0.40;0.40;;;;;;;6.24;79.63;94890.19;4999059;28;20258;-84
2021/12/01 03:03:37;;;;;;;0.50;0.50;;;;;;;6.31;79.67;94892.88;4999003;28;20230;-83
2021/12/01 03:06:03;;;;;;;0.40;0.40;;;;;;;6.35;79.35;94885.69;4996935;28;20230;-85
2021/12/01 03:08:30;;;;;;;0.40;0.40;;;;;;;6.27;79.82;94886.50;4999248;28;20885;-85
2021/12/01 03:10:57;;;;;;;0.50;0.50;;;;;;;6.28;79.54;94885.56;4999358;28;20188;-83
2021/12/01 03:13:26;;;;;;;0.50;0.50;;;;;;;6.31;79.60;94879.31;5006834;28;20226;-83
2021/12/01 03:15:52;;;;;;;0.43;0.43;;;;;;;6.35;79.04;94883.91;5018001;28;20243;-85
2021/12/01 03:18:20;;;;;;;0.40;0.40;;;;;;;6.32;79.05;94886.81;5013205;28;20203;-85
2021/12/01 03:20:48;;;;;;;0.40;0.40;;;;;;;6.35;79.31;94878.78;4999901;28;20207;-84
2021/12/01 03:23:15;;;;;;;0.50;0.50;;;;;;;6.36;78.94;94885.50;4998955;28;20204;-84
2021/12/01 03:25:42;;;;;;;0.50;0.50;;;;;;;6.33;79.17;94870.53;4998202;28;20251;-85
2021/12/01 03:28:09;;;;;;;0.40;0.40;;;;;;;6.42;78.77;94873.81;4998537;28;20195;-85
2021/12/01 03:30:37;;;;;;;0.50;0.50;;;;;;;6.43;78.88;94872.84;4998833;28;20208;-84
2021/12/01 03:33:06;;;;;;;0.40;0.40;;;;;;;6.40;78.73;94871.41;4999084;28;20200;-83
2021/12/01 03:35:33;;;;;;;0.50;0.50;;;;;;;6.40;78.96;94865.50;4997723;28;20231;-85
2021/12/01 03:38:00;;;;;;;0.50;0.50;;;;;;;6.44;79.16;94879.56;4997690;28;20209;-85
2021/12/01 03:40:26;;;;;;;0.50;0.50;;;;;;;6.48;79.04;94868.81;4997947;28;20203;-83
2021/12/01 03:42:53;;;;;;;0.50;0.50;;;;;;;6.49;79.00;94865.31;4998068;28;20199;-84
2021/12/01 03:45:19;;;;;;;0.40;0.40;;;;;;;6.45;79.37;94858.94;4997867;28;20318;-85
2021/12/01 03:47:47;;;;;;;0.53;0.53;;;;;;;6.43;79.39;94870.28;4997563;28;20262;-84
2021/12/01 03:50:14;;;;;;;0.57;0.57;;;;;;;6.43;79.39;94849.84;4998723;28;20211;-84
2021/12/01 03:52:41;;;;;;;0.60;0.60;;;;;;;6.43;79.36;94854.94;4997409;28;20261;-85
2021/12/01 03:55:09;;;;;;;0.60;0.60;;;;;;;6.45;79.00;94856.38;4996716;28;20258;-84
2021/12/01 03:57:36;;;;;;;0.60;0.60;;;;;;;6.43;79.10;94850.63;4998108;28;20226;-84
2021/12/01 04:00:06;;;;;;;0.50;0.50;;;;;;;6.45;79.19;94842.78;4998317;28;20662;-85
2021/12/01 04:02:32;;;;;;;0.50;0.50;;;;;;;6.47;79.27;94857.00;4998277;28;20207;-84
2021/12/01 04:05:00;;;;;;;0.50;0.50;;;;;;;6.51;79.63;94834.47;4996974;28;20246;-84
2021/12/01 04:07:26;;;;;;;0.60;0.60;;;;;;;6.50;80.36;94828.53;4997627;28;20199;-83
2021/12/01 04:09:53;;;;;;;0.50;0.50;;;;;;;6.44;81.99;94830.97;4997553;28;20203;-84
2021/12/01 04:12:19;;;;;;;0.50;0.50;;;;;;;6.48;82.20;94819.44;4998738;28;20211;-84
2021/12/01 04:14:46;;;;;;;0.43;0.43;;;;;;;6.46;82.08;94822.19;4996554;28;20235;-83
2021/12/01 04:17:12;;;;;;;0.50;0.50;;;;;;;6.53;82.04;94817.97;4998435;28;20219;-83
2021/12/01 04:19:39;;;;;;;0.60;0.60;;;;;;;6.53;81.47;94814.63;4997971;28;20195;-84
2021/12/01 04:22:07;;;;;;;0.50;0.50;;;;;;;6.52;80.99;94807.91;4996887;28;20262;-84
2021/12/01 04:24:33;;;;;;;0.87;0.60;;;;;;;6.48;81.26;94799.78;4996044;28;20223;-83
2021/12/01 04:27:00;;;;;;;0.80;0.50;;;;;;;6.52;81.08;94803.59;4996676;28;20200;-83
2021/12/01 04:29:27;;;;;;;0.60;0.60;;;;;;;6.50;80.32;94797.06;4996875;28;20199;-84
2021/12/01 04:31:54;;;;;;;0.50;0.50;;;;;;;6.47;80.34;94789.72;4995884;28;20195;-84
2021/12/01 04:34:21;;;;;;;0.53;0.53;;;;;;;6.44;80.60;94792.63;4996315;28;20223;-83
2021/12/01 04:36:49;;;;;;;0.97;0.97;;;;;;;6.49;80.01;94788.59;4995258;28;20223;-84
2021/12/01 04:39:19;;;;;;;0.50;0.50;;;;;;;6.53;80.19;94778.84;4996041;28;20227;-84
2021/12/01 04:41:52;;;;;;;0.50;0.50;;;;;;;6.45;80.53;94777.13;4995478;28;20195;-83
2021/12/01 04:44:21;;;;;;;0.60;0.60;;;;;;;6.48;80.05;94760.63;4995839;28;20221;-81
2021/12/01 04:46:48;;;;;;;0.50;0.50;;;;;;;6.51;79.79;94763.66;4994765;28;20602;-82
2021/12/01 04:49:18;;;;;;;0.50;0.50;;;;;;;6.52;79.72;94765.25;4995817;28;20195;-82
2021/12/01 04:51:48;;;;;;;0.73;0.60;;;;;;;6.55;79.61;94764.09;5001087;28;20211;-82
2021/12/01 04:54:15;;;;;;;0.50;0.50;;;;;;;6.57;79.49;94752.72;4996262;28;20306;-83
2021/12/01 04:56:44;;;;;;;0.50;0.50;;;;;;;6.54;79.16;94754.84;4995057;28;20685;-83
2021/12/01 04:59:11;;;;;;;0.57;0.57;;;;;;;6.60;79.57;94749.03;4995958;28;20207;-85
2021/12/01 05:01:40;;;;;;;0.60;0.60;;;;;;;6.61;79.24;94747.25;4995656;28;20210;-85
2021/12/01 05:04:07;;;;;;;0.87;0.70;;;;;;;6.58;79.20;94746.63;4994533;28;20227;-84
2021/12/01 05:06:34;;;;;;;0.60;0.60;;;;;;;6.65;78.83;94749.31;4997086;28;20251;-84
2021/12/01 05:09:01;;;;;;;0.50;0.50;;;;;;;6.61;78.66;94726.81;4999885;28;20195;-84
2021/12/01 05:11:27;;;;;;;0.50;0.50;;;;;;;6.57;79.22;94723.78;5000033;28;20203;-85
2021/12/01 05:13:55;;;;;;;0.50;0.50;;;;;;;6.63;78.90;94725.66;4999188;28;20219;-85
2021/12/01 05:16:22;;;;;;;0.67;0.67;;;;;;;6.58;78.74;94715.94;4997823;28;20231;-84
2021/12/01 05:18:48;;;;;;;0.60;0.60;;;;;;;6.59;79.25;94717.53;4997785;28;20203;-81
2021/12/01 05:21:15;;;;;;;0.60;0.60;;;;;;;6.61;79.88;94707.16;4997865;28;20733;-83
2021/12/01 05:23:41;;;;;;;0.60;0.60;;;;;;;6.63;79.60;94701.84;4998258;28;20369;-82
2021/12/01 05:26:09;;;;;;;0.50;0.50;;;;;;;6.63;79.80;94705.22;4997982;28;20239;-81
2021/12/01 05:28:36;;;;;;;0.80;0.80;;;;;;;6.62;80.49;94700.25;4978926;28;20295;-82
2021/12/01 05:31:04;;;;;;;0.63;0.60;;;;;;;6.61;82.03;94706.34;4986383;28;20203;-82
2021/12/01 05:33:30;;;;;;;0.60;0.60;;;;;;;6.61;81.31;94706.34;4997647;28;20247;-83
2021/12/01 05:35:57;;;;;;;0.60;0.60;;;;;;;6.59;81.62;94703.97;4996731;28;20223;-84
2021/12/01 05:38:23;;;;;;;0.70;0.70;;;;;;;6.59;81.32;94703.97;4997969;28;20203;-83
2021/12/01 05:40:50;;;;;;;0.67;0.67;;;;;;;6.62;81.51;94698.50;4996476;28;20674;-82
2021/12/01 05:43:18;;;;;;;0.70;0.70;;;;;;;6.60;81.71;94697.88;4995690;28;20203;-82
2021/12/01 05:45:44;;;;;;;0.60;0.60;;;;;;;6.59;82.47;94707.31;4992135;28;20223;-83
2021/12/01 05:48:13;;;;;;;0.77;0.77;;;;;;;6.58;83.76;94699.81;4984548;28;20203;-85
2021/12/01 05:50:39;;;;;;;0.90;0.60;;;;;;;6.54;85.31;94712.16;4997476;28;20859;-85
2021/12/01 05:53:06;;;;;;;0.70;0.70;;;;;;;6.59;88.38;94703.97;4998883;28;20204;-85
2021/12/01 05:55:32;;;;;;;4.80;3.07;;;;;;;6.58;88.35;94695.50;4998721;28;20241;-84
2021/12/01 05:57:59;;;;;;;1.37;1.20;;;;;;;6.51;88.84;94707.41;4999023;28;20223;-84
2021/12/01 06:00:26;;;;;;;0.70;0.70;;;;;;;6.45;90.69;94691.94;4998111;28;20215;-84
2021/12/01 06:02:52;;;;;;;0.70;0.70;;;;;;;6.45;90.42;94690.19;5001279;28;20633;-84
2021/12/01 06:05:22;;;;;;;1.20;0.80;;;;;;;6.40;90.20;94676.31;5003212;28;20234;-84
2021/12/01 06:07:49;;;;;;;1.77;0.90;;;;;;;6.39;91.21;94685.75;4998315;28;20196;-83
2021/12/01 06:10:16;;;;;;;1.40;0.90;;;;;;;6.43;90.66;94678.53;4998161;28;20200;-84
2021/12/01 06:12:44;;;;;;;1.13;0.93;;;;;;;6.40;92.06;94673.75;5000640;28;20695;-81
2021/12/01 06:15:13;;;;;;;0.70;0.70;;;;;;;6.37;93.22;94672.34;5002953;28;20238;-81
2021/12/01 06:17:39;;;;;;;1.77;0.90;;;;;;;6.32;93.99;94674.66;5011324;28;20211;-83
2021/12/01 06:20:07;;;;;;;0.93;0.80;;;;;;;6.34;94.47;94659.16;5010405;28;20199;-84
2021/12/01 06:22:35;;;;;;;0.80;0.80;;;;;;;6.34;92.67;94657.38;4999588;28;20207;-84
2021/12/01 06:25:02;;;;;;;4.40;0.90;;;;;;;6.38;92.93;94663.72;4997634;28;20262;-84
2021/12/01 06:27:29;;;;;;;1.00;0.90;;;;;;;6.38;93.01;94652.69;4997557;28;20196;-85
2021/12/01 06:29:56;;;;;;;3.23;1.00;;;;;;;6.45;91.81;94648.47;4998654;28;20262;-85
2021/12/01 06:32:22;;;;;;;1.90;0.80;;;;;;;6.43;93.00;94645.31;4998522;28;20215;-84
2021/12/01 06:34:49;;;;;;;1.07;0.80;;;;;;;6.42;91.92;94638.59;4997161;28;20235;-83
2021/12/01 06:37:17;;;;;;;0.90;0.90;;;;;;;6.43;91.68;94638.44;4997562;28;20223;-84
2021/12/01 06:39:46;;;;;;;0.80;0.80;;;;;;;6.53;90.80;94636.44;4997931;28;20204;-82
2021/12/01 06:42:13;;;;;;;2.70;1.13;;;;;;;6.54;91.10;94642.34;4997376;28;20243;-84
2021/12/01 06:44:40;;;;;;;0.90;0.90;;;;;;;6.51;90.44;94633.25;4996494;28;20270;-84
2021/12/01 06:47:06;;;;;;;0.90;0.90;;;;;;;6.44;89.70;94637.47;4996976;28;20208;-85
2021/12/01 06:49:33;;;;;;;0.70;0.70;;;;;;;6.38;89.57;94622.00;4997001;28;20203;-84
2021/12/01 06:51:59;;;;;;;0.90;0.90;;;;;;;6.39;90.18;94632.06;4997451;28;20204;-84
2021/12/01 06:54:25;;;;;;;1.20;0.97;;;;;;;6.44;89.64;94622.13;4996285;28;20282;-84
2021/12/01 06:56:53;;;;;;;1.87;1.23;;;;;;;6.49;89.21;94613.94;4997489;28;20231;-84
2021/12/01 06:59:20;;;;;;;1.87;0.90;;;;;;;6.48;88.44;94618.25;4998025;28;20230;-85
2021/12/01 07:01:46;;;;;;;1.43;0.97;;;;;;;6.47;89.30;94616.66;4997614;28;20195;-83
2021/12/01 07:04:14;;;;;;;1.10;1.00;;;;;;;6.55;88.59;94620.88;5000086;28;20433;-84
2021/12/01 07:06:40;;;;;;;0.83;0.83;;;;;;;6.57;88.09;94606.16;4996479;28;20238;-84
2021/12/01 07:09:07;;;;;;;1.60;1.10;;;;;;;6.54;88.25;94596.31;4996555;28;20226;-84
2021/12/01 07:11:33;;;;;;;2.50;0.90;;;;;;;6.61;87.66;94604.84;4997193;28;20269;-83
2021/12/01 07:14:01;;;;;;;0.97;0.80;;;;;;;6.63;87.23;94609.78;4996357;28;20601;-80
2021/12/01 07:16:29;;;;;;;1.27;0.97;;;;;;;6.53;86.50;94607.50;4994919;28;20227;-84
2021/12/01 07:18:56;;;;;;;0.80;0.70;;;;;;;6.58;85.64;94606.00;5000776;28;20242;-85
2021/12/01 07:21:23;;;;;;;0.80;0.80;;;;;;;6.52;86.14;94609.28;4996743;28;20613;-84
2021/12/01 07:23:49;;;;;;;1.40;0.90;;;;;;;6.56;84.85;94605.38;5014513;28;20219;-82
2021/12/01 07:26:15;;;;;;;1.13;1.00;;;;;;;6.62;84.77;94616.66;5000174;28;20246;-83
2021/12/01 07:28:42;;;;;;;1.20;0.80;;;;;;;6.62;84.07;94603.09;5000352;28;20187;-81
2021/12/01 07:31:09;;;;;;;0.70;0.70;;;;;;;6.68;84.11;94602.41;5005987;28;20206;-84
2021/12/01 07:33:36;;;;;;;0.80;0.80;;;;;;;6.58;83.48;94602.63;4999411;28;20230;-84
2021/12/01 07:36:04;;;;;;;1.47;0.80;;;;;;;6.53;82.31;94602.41;4994395;28;20243;-85
2021/12/01 07:38:31;;;;;;;0.80;0.80;;;;;;;6.56;82.05;94595.13;4995989;28;20362;-85
2021/12/01 07:40:57;;;;;;;1.47;0.80;;;;;;;6.59;81.15;94589.69;4996909;28;20204;-83
2021/12/01 07:43:24;;;;;;;0.80;0.80;;;;;;;6.61;81.13;94575.94;4996055;28;20231;-85
2021/12/01 07:45:50;;;;;;;0.90;0.80;;;;;;;6.66;80.44;94569.31;4994204;28;20223;-84
2021/12/01 07:48:18;;;;;;;0.80;0.80;;;;;;;6.65;79.64;94560.06;4995530;28;20219;-84
2021/12/01 07:50:45;;;;;;;0.77;0.77;;;;;;;6.55;79.16;94552.63;4996194;28;20191;-83
2021/12/01 07:53:11;;;;;;;0.90;0.80;;;;;;;6.64;79.44;94552.56;4999366;28;20211;-84
2021/12/01 07:55:38;;;;;;;0.83;0.83;;;;;;;6.67;79.50;94547.88;4997989;28;20231;-85
2021/12/01 07:58:05;;;;;;;0.80;0.80;;;;;;;6.62;78.45;94539.94;4998315;28;20226;-84
2021/12/01 08:00:32;;;;;;;1.13;0.80;;;;;;;6.61;78.87;94540.91;5012600;28;20199;-85
2021/12/01 08:02:58;;;;;;;1.07;0.90;;;;;;;6.65;78.80;94542.16;4998081;28;20211;-85
2021/12/01 08:05:26;;;;;;;0.70;0.70;;;;;;;6.67;77.69;94540.22;4994526;28;20691;-85
2021/12/01 08:07:53;;;;;;;0.80;0.80;;;;;;;6.69;77.77;94535.72;4996962;28;20690;-85
2021/12/01 08:10:19;;;;;;;0.80;0.80;;;;;;;6.70;77.03;94536.50;4997821;28;20875;-85
2021/12/01 08:12:45;;;;;;;0.80;0.80;;;;;;;6.70;76.88;94532.19;5012000;28;20192;-85
2021/12/01 08:15:12;;;;;;;0.67;0.67;;;;;;;6.75;77.24;94534.19;4996951;28;20235;-84
2021/12/01 08:17:39;;;;;;;0.70;0.70;;;;;;;6.77;77.30;94527.94;4997314;28;20298;-85
2021/12/01 08:20:06;;;;;;;1.63;0.80;;;;;;;6.83;76.87;94531.53;4997270;28;20554;-84
2021/12/01 08:22:34;;;;;;;0.80;0.80;;;;;;;6.84;76.57;94533.94;4996905;28;20211;-85
2021/12/01 08:25:01;;;;;;;1.07;0.97;;;;;;;6.86;76.63;94523.53;4996579;28;20231;-84
2021/12/01 08:27:29;;;;;;;0.83;0.80;;;;;;;7.17;75.16;94521.50;4997527;28;20203;-84
2021/12/01 08:29:56;;;;;;;0.97;0.90;;;;;;;7.21;74.89;94509.91;4997800;28;20805;-84
2021/12/01 08:32:22;;;;;;;1.17;0.83;;;;;;;7.17;74.28;94495.09;4996865;28;20203;-85
2021/12/01 08:34:51;;;;;;;1.17;1.07;;;;;;;7.11;74.44;94495.84;4996479;28;20289;-84
2021/12/01 08:37:19;;;;;;;0.90;0.90;;;;;;;7.10;74.18;94484.03;4996749;28;20219;-85
2021/12/01 08:39:48;;;;;;;0.90;0.87;;;;;;;7.25;73.58;94490.66;4996411;28;20199;-84
2021/12/01 08:42:15;;;;;;;0.80;0.80;;;;;;;7.61;72.12;94505.16;4997076;28;20262;-85
2021/12/01 08:44:45;;;;;;;1.00;0.90;;;;;;;7.63;72.04;94498.88;4982171;28;20231;-84
2021/12/01 08:47:12;;;;;;;1.10;1.00;;;;;;;7.88;70.48;94490.78;4990556;28;20207;-85
2021/12/01 08:49:38;;;;;;;0.90;0.90;;;;;;;8.24;69.78;94508.56;4993126;28;20575;-82
2021/12/01 08:52:05;;;;;;;0.80;0.80;;;;;;;8.56;68.28;94496.91;4995267;28;20208;-83
2021/12/01 08:54:32;;;;;;;1.03;1.03;;;;;;;8.78;67.80;94495.03;4992828;28;20246;-84
2021/12/01 08:57:00;;;;;;;1.60;1.10;;;;;;;8.92;66.49;94488.97;4992175;28;20266;-84
2021/12/01 08:59:26;;;;;;;0.90;0.90;;;;;;;8.85;65.86;94495.88;4992635;28;20472;-85
2021/12/01 09:01:53;;;;;;;1.07;0.83;;;;;;;8.88;65.99;94488.53;4994453;28;20199;-84
2021/12/01 09:04:20;;;;;;;0.97;0.83;;;;;;;9.04;65.70;94477.16;4994854;28;20227;-81
2021/12/01 09:06:46;;;;;;;0.70;0.60;;;;;;;9.27;64.40;94481.94;4995868;28;20227;-84
2021/12/01 09:09:18;;;;;;;0.80;0.80;;;;;;;9.45;64.13;94476.22;4991324;28;20203;-84
2021/12/01 09:11:44;;;;;;;1.13;0.83;;;;;;;9.66;63.24;94481.97;4978667;28;20196;-85
2021/12/01 09:14:12;;;;;;;0.70;0.70;;;;;;;9.72;62.56;94493.25;4989888;28;20765;-84
2021/12/01 09:16:39;;;;;;;0.70;0.70;;;;;;;9.80;62.35;94476.84;4994012;28;20261;-85
2021/12/01 09:19:05;;;;;;;0.57;0.57;;;;;;;10.02;61.46;94478.97;4994609;28;20219;-85
2021/12/01 09:21:32;;;;;;;0.70;0.70;;;;;;;10.13;60.87;94469.88;4995378;28;20207;-86
2021/12/01 09:23:58;;;;;;;0.70;0.70;;;;;;;10.30;60.93;94475.41;4994368;28;20226;-83
2021/12/01 09:26:25;;;;;;;0.70;0.70;;;;;;;9.96;60.87;94481.56;4994046;28;20239;-84
2021/12/01 09:28:51;;;;;;;1.17;0.80;;;;;;;9.66;61.70;94476.81;4993191;28;20247;-83
2021/12/01 09:31:20;;;;;;;1.00;1.00;;;;;;;9.56;62.86;94471.31;4995010;28;20227;-83
2021/12/01 09:33:46;;;;;;;0.70;0.70;;;;;;;9.40;62.86;94474.25;4993669;28;20710;-83
2021/12/01 09:36:13;;;;;;;0.70;0.70;;;;;;;9.23;63.47;94480.75;4993102;28;20223;-83
2021/12/01 09:38:40;;;;;;;1.23;0.80;;;;;;;8.87;64.10;94471.56;4992459;28;20233;-82
2021/12/01 09:41:06;;;;;;;0.90;0.90;;;;;;;8.70;64.68;94459.28;4993346;28;20694;-81
2021/12/01 09:43:35;;;;;;;0.73;0.73;;;;;;;8.66;65.13;94448.59;4994141;28;20557;-83
2021/12/01 09:46:04;;;;;;;0.73;0.73;;;;;;;8.75;65.34;94450.03;4992870;28;20235;-84
2021/12/01 09:48:33;;;;;;;0.90;0.90;;;;;;;8.79;65.23;94435.03;4993916;28;20198;-83
2021/12/01 09:51:00;;;;;;;2.17;0.90;;;;;;;8.72;64.88;94434.22;4994807;28;20199;-82
2021/12/01 09:53:27;;;;;;;0.80;0.70;;;;;;;8.69;65.01;94430.25;4996487;28;20234;-83
2021/12/01 09:55:53;;;;;;;1.13;0.90;;;;;;;8.72;64.56;94423.94;4996109;28;20632;-82
2021/12/01 09:58:22;;;;;;;0.70;0.70;;;;;;;8.64;65.09;94419.81;4997095;28;20227;-82
2021/12/01 10:00:52;;;;;;;0.67;0.67;;;;;;;8.70;64.79;94410.53;4997002;28;20266;-84
2021/12/01 10:03:18;;;;;;;0.67;0.67;;;;;;;8.62;64.93;94399.47;4995403;28;20733;-83
2021/12/01 10:05:52;;;;;;;0.70;0.70;;;;;;;8.53;64.92;94407.50;4995798;28;20223;-84
2021/12/01 10:08:21;;;;;;;0.60;0.60;;;;;;;8.56;64.78;94402.78;4996380;28;20211;-83
2021/12/01 10:10:48;;;;;;;0.73;0.73;;;;;;;8.64;64.12;94394.94;4997898;28;20205;-84
2021/12/01 10:13:16;;;;;;;1.13;0.60;;;;;;;8.70;63.25;94390.78;4997439;28;20208;-83
2021/12/01 10:15:43;;;;;;;0.60;0.60;;;;;;;8.80;62.95;94380.94;4990889;28;20226;-83
2021/12/01 10:18:11;;;;;;;0.57;0.57;;;;;;;8.89;62.84;94368.72;4990330;28;20226;-82
2021/12/01 10:20:38;;;;;;;0.60;0.60;;;;;;;8.92;62.21;94366.53;4992585;28;20207;-85
2021/12/01 10:23:11;;;;;;;0.70;0.70;;;;;;;9.00;62.28;94363.81;4992751;28;20662;-85
2021/12/01 10:25:38;;;;;;;0.77;0.77;;;;;;;9.12;62.00;94363.19;4997253;28;20319;-84
2021/12/01 10:28:05;;;;;;;0.63;0.60;;;;;;;9.30;61.25;94348.78;4995226;28;20199;-86
2021/12/01 10:30:37;;;;;;;0.60;0.60;;;;;;;9.48;60.87;94340.47;4995792;28;20203;-83
2021/12/01 10:33:09;;;;;;;0.57;0.57;;;;;;;9.60;60.27;94338.88;4995477;28;20242;-85
2021/12/01 10:35:36;;;;;;;0.60;0.60;;;;;;;9.70;59.68;94334.09;4993926;28;20227;-84
2021/12/01 10:38:04;;;;;;;0.70;0.70;;;;;;;9.73;60.21;94330.34;4995138;28;20255;-85
2021/12/01 10:40:32;;;;;;;0.73;0.60;;;;;;;9.77;59.85;94328.16;4995358;28;20445;-84
2021/12/01 10:43:00;;;;;;;0.83;0.60;;;;;;;9.76;59.13;94306.03;4994524;28;20206;-83
2021/12/01 10:45:29;;;;;;;1.13;0.70;;;;;;;9.87;58.96;94297.66;4994926;28;20235;-85
2021/12/01 10:47:57;;;;;;;0.93;0.70;;;;;;;9.88;58.36;94286.38;4993230;28;20203;-84
2021/12/01 10:50:26;;;;;;;0.60;0.60;;;;;;;9.87;58.95;94283.03;4994404;28;20290;-82
2021/12/01 10:52:56;;;;;;;0.73;0.60;;;;;;;9.76;59.36;94268.25;4994028;28;20233;-82
2021/12/01 10:55:25;;;;;;;0.53;0.53;;;;;;;9.65;59.72;94264.53;4987019;28;20344;-84
2021/12/01 10:57:57;;;;;;;0.60;0.60;;;;;;;9.65;60.32;94245.75;4993906;28;20195;-85
2021/12/01 11:00:27;;;;;;;0.50;0.50;;;;;;;9.71;60.11;94244.94;4992852;28;20206;-84
2021/12/01 11:02:54;;;;;;;0.50;0.50;;;;;;;9.86;60.16;94236.97;4993347;28;20199;-83
2021/12/01 11:05:30;;;;;;;1.63;0.67;;;;;;;10.13;59.62;94235.06;4993770;28;20238;-84
2021/12/01 11:07:57;;;;;;;0.50;0.50;;;;;;;10.25;59.10;94229.06;4993096;28;20207;-84
2021/12/01 11:10:26;;;;;;;0.70;0.60;;;;;;;10.31;59.49;94212.03;4994350;28;20258;-84
2021/12/01 11:13:00;;;;;;;0.50;0.50;;;;;;;10.19;59.71;94206.75;4994478;28;20267;-84
2021/12/01 11:15:28;;;;;;;0.60;0.60;;;;;;;10.03;59.83;94215.72;4992855;28;20243;-84
2021/12/01 11:17:56;;;;;;;0.50;0.50;;;;;;;9.93;60.46;94196.59;4996761;28;20207;-82
2021/12/01 11:20:38;;;;;;;4.00;0.93;;;;;;;9.87;60.47;94212.84;4997054;28;20203;-84
2021/12/01 11:23:14;;;;;;;0.63;0.63;;;;;;;9.93;60.71;94199.16;4996772;28;20222;-84
2021/12/01 11:25:46;;;;;;;0.83;0.60;;;;;;;9.92;60.76;94200.16;4995221;28;20230;-84
2021/12/01 11:28:16;;;;;;;0.70;0.70;;;;;;;10.08;60.04;94199.66;4995945;28;20204;-84
2021/12/01 11:30:44;;;;;;;1.70;0.60;;;;;;;10.12;60.29;94179.47;4995467;28;20231;-84
2021/12/01 11:33:17;;;;;;;0.63;0.60;;;;;;;10.15;60.66;94192.72;4995452;28;20215;-84
2021/12/01 11:35:45;;;;;;;0.70;0.70;;;;;;;10.04;60.81;94175.34;4995466;28;20224;-84
2021/12/01 11:38:13;;;;;;;0.60;0.60;;;;;;;9.89;61.32;94157.66;4996293;28;20231;-84
2021/12/01 11:40:40;;;;;;;0.70;0.70;;;;;;;9.73;61.37;94157.34;4994553;28;20196;-84
2021/12/01 11:43:09;;;;;;;1.17;0.70;;;;;;;9.65;61.77;94151.47;4994269;28;20685;-84
2021/12/01 11:45:46;;;;;;;0.57;0.57;;;;;;;9.55;61.96;94147.75;4994502;28;20235;-84
2021/12/01 11:48:16;;;;;;;1.33;0.70;;;;;;;9.52;62.73;94146.38;4994150;28;20207;-82